Time;durP1;ratioP1;P1;durP2;ratioP2;P2;SDS_P1;SDS_P2;PMS_P1;PMS_P2;Temp;Humidity;BMP_temperature;BMP_pressure;BME280_temperature;BME280_humidity;BME280_pressure;Samples;Min_cycle;Max_cycle;Signal;HPM_P1;HPM_P2
2022/01/18 00:02:10;;;;;;;25.98;11.18;;;;;;;;;;8338219;28;20049;-65
2022/01/18 00:06:10;;;;;;;24.83;11.50;;;;;;;;;;8338394;28;20106;-65
2022/01/18 00:10:12;;;;;;;18.13;10.57;;;;;;;;;;8339880;28;20025;-65
2022/01/18 00:14:27;;;;;;;17.55;10.20;;;;;;;;;;8337457;28;20031;-65
2022/01/18 00:18:28;;;;;;;25.05;12.60;;;;;;;;;;8336738;28;20037;-64
2022/01/18 00:22:29;;;;;;;20.73;11.60;;;;;;;;;;8338331;28;20029;-65
2022/01/18 00:26:31;;;;;;;34.70;12.35;;;;;;;;;;8339392;28;20060;-65
2022/01/18 00:30:59;;;;;;;18.58;10.75;;;;;;;;;;8339040;28;20043;-65
2022/01/18 00:34:55;;;;;;;19.80;10.75;;;;;;;;;;8336453;28;20275;-65
2022/01/18 00:38:56;;;;;;;18.63;10.40;;;;;;;;;;8337946;28;20465;-65
2022/01/18 00:42:56;;;;;;;24.63;11.52;;;;;;;;;;8337334;28;20520;-65
2022/01/18 00:46:56;;;;;;;17.13;10.05;;;;;;;;;;8337627;28;20044;-65
2022/01/18 00:50:56;;;;;;;23.08;11.45;;;;;;;;;;8337061;28;20063;-65
2022/01/18 00:54:59;;;;;;;22.85;9.77;;;;;;;;;;8337095;28;20017;-65
2022/01/18 00:59:00;;;;;;;20.52;9.55;;;;;;;;;;8336781;28;20020;-65
2022/01/18 01:03:00;;;;;;;21.70;10.23;;;;;;;;;;8337114;28;20083;-65
2022/01/18 01:07:00;;;;;;;19.52;9.88;;;;;;;;;;8335841;28;20021;-65
2022/01/18 01:11:01;;;;;;;28.50;11.33;;;;;;;;;;8337276;28;20024;-65
2022/01/18 01:15:09;;;;;;;15.95;9.00;;;;;;;;;;8336137;28;20834;-65
2022/01/18 01:19:23;;;;;;;22.45;10.50;;;;;;;;;;8336843;28;20269;-65
2022/01/18 01:44:47;;;;;;;21.00;8.55;;;;;;;;;;8338116;28;20234;-65
2022/01/18 01:48:53;;;;;;;19.15;8.60;;;;;;;;;;8341998;28;20255;-64
2022/01/18 01:52:55;;;;;;;30.63;11.27;;;;;;;;;;8344862;28;20100;-65
2022/01/18 01:56:55;;;;;;;20.73;10.27;;;;;;;;;;8341980;28;20051;-64
2022/01/18 02:00:57;;;;;;;26.63;10.15;;;;;;;;;;8341458;28;20201;-64
2022/01/18 02:04:57;;;;;;;21.88;9.95;;;;;;;;;;8342632;28;20024;-64
2022/01/18 02:08:57;;;;;;;18.05;9.32;;;;;;;;;;8342052;28;20028;-64
2022/01/18 02:12:57;;;;;;;14.95;8.50;;;;;;;;;;8342418;28;20035;-64
2022/01/18 02:25:38;;;;;;;24.67;9.13;;;;;;;;;;8342898;28;20302;-64
2022/01/18 02:29:38;;;;;;;21.80;7.53;;;;;;;;;;8341776;28;20389;-64
2022/01/18 02:33:38;;;;;;;13.10;7.43;;;;;;;;;;8340453;28;20557;-64
2022/01/18 02:37:39;;;;;;;16.58;7.82;;;;;;;;;;8342430;28;20301;-65
2022/01/18 02:41:39;;;;;;;17.05;8.65;;;;;;;;;;8342669;28;20549;-64
2022/01/18 02:45:39;;;;;;;15.70;7.55;;;;;;;;;;8339685;28;20044;-65
2022/01/18 02:49:39;;;;;;;17.50;8.27;;;;;;;;;;8339335;28;20028;-65
2022/01/18 02:53:55;;;;;;;20.25;8.75;;;;;;;;;;8339106;28;20028;-65
2022/01/18 02:58:02;;;;;;;17.52;8.20;;;;;;;;;;8341692;28;20116;-65
2022/01/18 03:06:34;;;;;;;19.33;8.25;;;;;;;;;;8340643;28;20484;-64
2022/01/18 03:10:35;;;;;;;25.27;9.10;;;;;;;;;;8340022;28;20337;-65
2022/01/18 03:14:35;;;;;;;18.98;8.23;;;;;;;;;;8340810;28;20064;-65
2022/01/18 03:18:35;;;;;;;20.38;8.50;;;;;;;;;;8340745;28;21052;-64
2022/01/18 03:22:36;;;;;;;12.05;7.25;;;;;;;;;;8341416;28;20118;-64
2022/01/18 03:28:03;;;;;;;16.75;6.88;;;;;;;;;;8338709;28;20436;-64
2022/01/18 03:31:00;;;;;;;12.95;7.05;;;;;;;;;;8339882;28;20041;-64
2022/01/18 03:35:00;;;;;;;14.75;7.53;;;;;;;;;;8339896;28;20053;-64
2022/01/18 03:39:00;;;;;;;21.10;6.53;;;;;;;;;;8339852;28;20474;-65
2022/01/18 03:43:02;;;;;;;15.82;7.07;;;;;;;;;;8338965;28;20025;-65
2022/01/18 03:47:02;;;;;;;23.63;7.78;;;;;;;;;;8339407;28;20493;-66
2022/01/18 03:51:04;;;;;;;18.97;6.73;;;;;;;;;;8338349;28;20846;-65
2022/01/18 03:55:05;;;;;;;20.52;7.55;;;;;;;;;;8339767;28;20263;-65
2022/01/18 03:59:05;;;;;;;15.65;7.13;;;;;;;;;;8340473;28;20561;-65
2022/01/18 04:03:05;;;;;;;16.90;7.00;;;;;;;;;;8337549;28;20076;-65
2022/01/18 04:07:07;;;;;;;17.05;6.93;;;;;;;;;;8337877;28;20493;-65
2022/01/18 04:11:07;;;;;;;14.00;7.22;;;;;;;;;;8337574;28;20032;-65
2022/01/18 04:15:09;;;;;;;23.98;8.50;;;;;;;;;;8337576;28;20506;-65
2022/01/18 04:27:55;;;;;;;22.38;7.47;;;;;;;;;;8338681;28;21430;-65
2022/01/18 04:31:55;;;;;;;21.98;8.15;;;;;;;;;;8337840;28;20037;-65
2022/01/18 04:35:56;;;;;;;17.63;7.03;;;;;;;;;;8337866;28;20300;-65
2022/01/18 04:39:58;;;;;;;17.02;7.38;;;;;;;;;;8339450;28;20096;-65
2022/01/18 04:52:17;;;;;;;14.60;6.85;;;;;;;;;;8337318;28;20074;-65
2022/01/18 04:56:27;;;;;;;15.68;7.25;;;;;;;;;;8336925;28;20426;-65
2022/01/18 05:00:27;;;;;;;16.23;7.15;;;;;;;;;;8337541;28;20040;-65
2022/01/18 05:04:27;;;;;;;16.75;7.40;;;;;;;;;;8338080;28;20530;-65
2022/01/18 05:08:27;;;;;;;14.93;7.40;;;;;;;;;;8337870;28;20108;-65
2022/01/18 05:12:45;;;;;;;19.00;7.50;;;;;;;;;;8335287;28;20036;-65
2022/01/18 05:16:56;;;;;;;19.17;7.15;;;;;;;;;;8334784;28;20372;-65
2022/01/18 05:21:13;;;;;;;20.75;7.25;;;;;;;;;;8342570;28;20029;-65
2022/01/18 05:25:13;;;;;;;18.77;7.20;;;;;;;;;;8343723;28;20021;-65
2022/01/18 05:29:14;;;;;;;15.38;5.90;;;;;;;;;;8340508;28;20281;-65
2022/01/18 05:33:14;;;;;;;17.80;6.82;;;;;;;;;;8343125;28;20032;-64
2022/01/18 05:37:14;;;;;;;17.67;7.10;;;;;;;;;;8343347;28;20028;-65
2022/01/18 05:41:15;;;;;;;16.73;6.38;;;;;;;;;;8342357;28;20539;-65
2022/01/18 05:45:15;;;;;;;17.63;6.87;;;;;;;;;;8342404;28;20452;-65
2022/01/18 05:49:15;;;;;;;19.95;7.22;;;;;;;;;;8343364;28;20811;-65
2022/01/18 05:53:15;;;;;;;19.42;6.43;;;;;;;;;;8342977;28;20528;-65
2022/01/18 05:57:16;;;;;;;12.30;6.03;;;;;;;;;;8343183;28;20017;-65
2022/01/18 06:01:27;;;;;;;15.57;6.13;;;;;;;;;;8341613;28;20041;-65
2022/01/18 06:09:46;;;;;;;12.95;6.22;;;;;;;;;;8344404;28;20564;-65
2022/01/18 06:13:46;;;;;;;11.40;5.90;;;;;;;;;;8340732;28;20225;-65
2022/01/18 06:17:47;;;;;;;11.75;5.50;;;;;;;;;;8342100;28;20413;-65
2022/01/18 06:21:47;;;;;;;11.55;6.40;;;;;;;;;;8342721;28;20387;-64
2022/01/18 06:25:47;;;;;;;15.45;6.53;;;;;;;;;;8348244;28;20028;-65
2022/01/18 06:29:48;;;;;;;15.20;5.93;;;;;;;;;;8341597;28;20097;-65
2022/01/18 06:33:48;;;;;;;19.63;6.45;;;;;;;;;;8339784;28;20469;-65
2022/01/18 06:37:48;;;;;;;18.77;7.13;;;;;;;;;;8342107;28;20028;-65
2022/01/18 06:41:48;;;;;;;21.02;6.43;;;;;;;;;;8342331;28;20032;-65
2022/01/18 06:45:48;;;;;;;17.17;6.28;;;;;;;;;;8340430;28;20033;-65
2022/01/18 06:49:49;;;;;;;14.52;5.80;;;;;;;;;;8340209;28;20021;-65
2022/01/18 06:53:49;;;;;;;16.23;6.63;;;;;;;;;;8343171;28;20611;-65
2022/01/18 06:57:49;;;;;;;20.17;7.63;;;;;;;;;;8341950;28;20024;-65
2022/01/18 07:01:49;;;;;;;22.00;7.80;;;;;;;;;;8342196;28;20033;-64
2022/01/18 07:05:50;;;;;;;26.88;7.93;;;;;;;;;;8340261;28;20437;-65
2022/01/18 07:09:50;;;;;;;15.55;6.78;;;;;;;;;;8341446;28;20147;-65
2022/01/18 07:13:51;;;;;;;14.55;6.40;;;;;;;;;;8340315;28;20097;-65
2022/01/18 07:17:51;;;;;;;19.50;6.65;;;;;;;;;;8340231;28;20094;-65
2022/01/18 07:21:51;;;;;;;19.75;6.32;;;;;;;;;;8340122;28;20028;-65
2022/01/18 07:25:53;;;;;;;18.07;6.47;;;;;;;;;;8341335;28;20483;-65
2022/01/18 07:29:53;;;;;;;20.08;6.53;;;;;;;;;;8340220;28;20278;-65
2022/01/18 07:33:53;;;;;;;16.10;6.00;;;;;;;;;;8337266;28;20269;-66
2022/01/18 07:37:53;;;;;;;21.13;6.10;;;;;;;;;;8339783;28;20246;-66
2022/01/18 07:41:53;;;;;;;14.52;6.05;;;;;;;;;;8338785;28;20291;-65
2022/01/18 07:45:54;;;;;;;21.90;6.68;;;;;;;;;;8338242;28;20090;-65
2022/01/18 07:49:54;;;;;;;16.48;6.20;;;;;;;;;;8339787;28;20642;-65
2022/01/18 07:53:54;;;;;;;15.00;5.63;;;;;;;;;;8339752;28;20584;-67
2022/01/18 07:57:57;;;;;;;12.60;5.60;;;;;;;;;;8337902;28;20063;-65
2022/01/18 08:01:57;;;;;;;9.90;4.75;;;;;;;;;;8337223;28;20035;-66
2022/01/18 08:05:57;;;;;;;12.55;5.03;;;;;;;;;;8338914;28;20374;-65
2022/01/18 08:09:58;;;;;;;14.13;4.57;;;;;;;;;;8339962;28;20025;-65
2022/01/18 08:14:00;;;;;;;9.60;3.80;;;;;;;;;;8338484;28;20025;-66
2022/01/18 08:18:00;;;;;;;14.50;4.20;;;;;;;;;;8340193;28;20943;-65
2022/01/18 08:22:01;;;;;;;11.90;3.67;;;;;;;;;;8342893;28;20543;-65
2022/01/18 08:26:01;;;;;;;11.57;3.80;;;;;;;;;;8341321;28;20027;-65
2022/01/18 08:30:03;;;;;;;11.75;2.90;;;;;;;;;;8342953;28;20025;-68
2022/01/18 08:34:03;;;;;;;10.15;2.80;;;;;;;;;;8340342;28;20228;-65
2022/01/18 08:38:03;;;;;;;12.45;2.92;;;;;;;;;;8339289;28;20537;-66
2022/01/18 08:42:03;;;;;;;8.95;2.92;;;;;;;;;;8338291;28;20029;-65
2022/01/18 08:46:04;;;;;;;8.73;3.80;;;;;;;;;;8337659;28;20122;-66
2022/01/18 08:50:05;;;;;;;18.85;4.72;;;;;;;;;;8340907;28;20029;-66
2022/01/18 08:54:05;;;;;;;13.18;4.85;;;;;;;;;;8339725;28;20041;-66
2022/01/18 08:58:05;;;;;;;14.65;4.32;;;;;;;;;;8338519;28;20320;-66
2022/01/18 09:02:06;;;;;;;16.00;5.63;;;;;;;;;;8342205;28;20040;-68
2022/01/18 09:06:07;;;;;;;23.02;7.55;;;;;;;;;;8339517;28;20025;-68
2022/01/18 09:10:10;;;;;;;29.35;10.32;;;;;;;;;;8339993;28;20065;-68
2022/01/18 09:14:10;;;;;;;31.58;9.82;;;;;;;;;;8337290;28;20434;-68
2022/01/18 09:18:10;;;;;;;29.97;9.93;;;;;;;;;;8338603;28;20032;-68
2022/01/18 09:22:11;;;;;;;31.00;10.38;;;;;;;;;;8341320;28;20283;-68
2022/01/18 09:26:13;;;;;;;27.10;9.13;;;;;;;;;;8340975;28;20317;-68
2022/01/18 09:30:14;;;;;;;22.45;6.80;;;;;;;;;;8338489;28;20024;-68
2022/01/18 09:34:15;;;;;;;28.30;10.07;;;;;;;;;;8337216;28;20941;-68
2022/01/18 09:38:15;;;;;;;23.98;6.68;;;;;;;;;;8340641;28;20078;-68
2022/01/18 09:42:17;;;;;;;14.18;4.55;;;;;;;;;;8338548;28;20521;-68
2022/01/18 09:46:17;;;;;;;11.23;3.40;;;;;;;;;;8340446;28;20120;-68
2022/01/18 09:50:21;;;;;;;9.13;3.77;;;;;;;;;;8338115;28;20032;-68
2022/01/18 09:54:21;;;;;;;7.57;2.65;;;;;;;;;;8339268;28;21225;-68
2022/01/18 09:58:21;;;;;;;7.18;2.50;;;;;;;;;;8338971;28;20043;-68
2022/01/18 10:02:21;;;;;;;8.50;2.40;;;;;;;;;;8337564;28;20439;-68
2022/01/18 10:06:22;;;;;;;11.00;2.33;;;;;;;;;;8343331;28;20032;-68
2022/01/18 10:10:33;;;;;;;4.88;1.92;;;;;;;;;;8342419;28;20029;-68
2022/01/18 10:14:35;;;;;;;4.72;1.90;;;;;;;;;;8345617;28;20218;-68
2022/01/18 10:18:47;;;;;;;9.30;2.22;;;;;;;;;;8344203;28;20048;-68
2022/01/18 10:22:49;;;;;;;4.22;1.58;;;;;;;;;;8344958;28;20095;-66
2022/01/18 10:26:50;;;;;;;4.78;1.80;;;;;;;;;;8346978;28;20020;-66
2022/01/18 10:30:50;;;;;;;2.53;1.48;;;;;;;;;;8346942;28;20115;-66
2022/01/18 10:38:58;;;;;;;4.10;1.38;;;;;;;;;;8343537;28;20077;-65
2022/01/18 10:43:04;;;;;;;5.10;1.63;;;;;;;;;;8346607;28;20020;-66
2022/01/18 10:47:04;;;;;;;4.53;1.40;;;;;;;;;;8352536;28;20992;-67
2022/01/18 10:51:24;;;;;;;1.65;1.10;;;;;;;;;;8348243;28;20031;-66
2022/01/18 10:55:24;;;;;;;1.90;0.93;;;;;;;;;;8345607;28;20036;-66
2022/01/18 10:59:25;;;;;;;4.15;1.00;;;;;;;;;;8346497;28;20039;-66
2022/01/18 11:03:26;;;;;;;2.80;1.30;;;;;;;;;;8347211;28;20060;-66
2022/01/18 11:07:28;;;;;;;2.13;0.88;;;;;;;;;;8342516;28;20469;-66
2022/01/18 11:11:28;;;;;;;0.98;0.88;;;;;;;;;;8346779;28;20065;-66
2022/01/18 11:15:29;;;;;;;2.08;0.80;;;;;;;;;;8343593;28;20591;-66
2022/01/18 11:19:33;;;;;;;3.30;0.90;;;;;;;;;;8344522;28;20174;-66
2022/01/18 11:23:34;;;;;;;4.68;1.58;;;;;;;;;;8343698;28;20093;-66
2022/01/18 11:27:35;;;;;;;1.98;1.10;;;;;;;;;;8346562;28;20386;-66
2022/01/18 11:31:35;;;;;;;1.85;0.80;;;;;;;;;;8344528;28;20041;-66
2022/01/18 11:35:41;;;;;;;1.65;0.68;;;;;;;;;;8347015;28;20081;-66
2022/01/18 11:39:42;;;;;;;4.38;0.80;;;;;;;;;;8346514;28;20028;-66
2022/01/18 11:43:44;;;;;;;3.38;1.55;;;;;;;;;;8343404;28;20025;-66
2022/01/18 11:47:57;;;;;;;3.13;1.30;;;;;;;;;;8349963;28;20784;-66
2022/01/18 11:52:03;;;;;;;1.45;0.77;;;;;;;;;;8348399;28;20031;-66
2022/01/18 11:56:03;;;;;;;0.88;0.60;;;;;;;;;;8342472;28;20474;-66
2022/01/18 12:00:24;;;;;;;1.05;0.70;;;;;;;;;;8340947;28;20357;-67
2022/01/18 12:04:48;;;;;;;1.63;0.60;;;;;;;;;;8339547;28;20505;-66
2022/01/18 12:08:50;;;;;;;1.15;0.50;;;;;;;;;;8358146;28;20033;-66
2022/01/18 12:12:51;;;;;;;1.25;0.50;;;;;;;;;;8343759;28;20478;-66
2022/01/18 12:16:51;;;;;;;4.18;0.77;;;;;;;;;;8344007;28;20033;-66
2022/01/18 12:20:51;;;;;;;1.98;0.60;;;;;;;;;;8341361;28;20055;-66
2022/01/18 12:25:11;;;;;;;8.40;0.60;;;;;;;;;;8340740;28;20020;-66
2022/01/18 12:29:21;;;;;;;1.35;0.60;;;;;;;;;;8342380;28;20024;-66
2022/01/18 12:33:23;;;;;;;3.47;1.10;;;;;;;;;;8339444;28;20578;-66
2022/01/18 12:37:28;;;;;;;2.17;1.23;;;;;;;;;;8341140;28;20541;-66
2022/01/18 12:41:38;;;;;;;2.65;1.00;;;;;;;;;;8341183;28;20079;-66
2022/01/18 12:45:40;;;;;;;2.83;1.10;;;;;;;;;;8343585;28;20033;-67
2022/01/18 12:49:41;;;;;;;1.52;0.73;;;;;;;;;;8341334;28;20021;-66
2022/01/18 12:53:46;;;;;;;1.15;0.60;;;;;;;;;;8339091;28;20109;-66
2022/01/18 12:57:56;;;;;;;3.53;0.82;;;;;;;;;;8341279;28;20059;-66
2022/01/18 13:01:56;;;;;;;0.93;0.82;;;;;;;;;;8341761;28;20316;-66
2022/01/18 13:05:57;;;;;;;3.60;1.10;;;;;;;;;;8340526;28;20080;-66
2022/01/18 13:10:03;;;;;;;1.95;0.90;;;;;;;;;;8342501;28;20048;-66
2022/01/18 13:14:11;;;;;;;4.57;1.50;;;;;;;;;;8338943;28;20099;-66
2022/01/18 13:27:02;;;;;;;2.97;1.45;;;;;;;;;;8341205;28;20458;-66
2022/01/18 13:31:21;;;;;;;5.15;1.60;;;;;;;;;;8331922;28;20620;-66
2022/01/18 13:35:24;;;;;;;6.18;1.67;;;;;;;;;;8336917;28;20035;-66
2022/01/18 13:39:28;;;;;;;2.95;1.50;;;;;;;;;;8338728;28;20039;-66
2022/01/18 13:43:29;;;;;;;4.45;1.50;;;;;;;;;;8342282;28;20576;-66
2022/01/18 13:47:36;;;;;;;3.50;1.40;;;;;;;;;;8343067;28;20425;-66
2022/01/18 13:51:36;;;;;;;4.10;1.70;;;;;;;;;;8344478;28;20263;-66
2022/01/18 13:55:37;;;;;;;4.10;1.52;;;;;;;;;;8342517;28;20017;-66
2022/01/18 13:59:38;;;;;;;1.98;1.60;;;;;;;;;;8341531;28;20515;-66
2022/01/18 14:03:39;;;;;;;3.30;1.88;;;;;;;;;;8342563;28;20075;-66
2022/01/18 14:07:39;;;;;;;1.40;1.30;;;;;;;;;;8343226;28;20548;-66
2022/01/18 14:11:47;;;;;;;2.10;1.25;;;;;;;;;;8343185;28;20033;-66
2022/01/18 14:15:47;;;;;;;2.20;1.20;;;;;;;;;;8342366;28;21825;-67
2022/01/18 14:19:47;;;;;;;3.65;1.40;;;;;;;;;;8346909;28;20117;-68
2022/01/18 14:23:48;;;;;;;3.00;1.70;;;;;;;;;;8348180;28;21580;-67
2022/01/18 14:27:48;;;;;;;2.25;1.20;;;;;;;;;;8347315;28;20028;-64
2022/01/18 14:32:01;;;;;;;2.15;1.33;;;;;;;;;;8346733;28;20044;-63
2022/01/18 14:36:13;;;;;;;2.23;1.30;;;;;;;;;;8341343;28;20954;-66
2022/01/18 14:40:13;;;;;;;5.18;2.28;;;;;;;;;;8337762;28;20027;-68
2022/01/18 14:44:24;;;;;;;4.28;1.60;;;;;;;;;;8343850;28;20689;-70
2022/01/18 14:48:25;;;;;;;2.55;1.50;;;;;;;;;;8347624;28;20732;-66
2022/01/18 14:52:26;;;;;;;2.45;1.20;;;;;;;;;;8352971;28;20033;-70
2022/01/18 14:56:27;;;;;;;3.80;1.17;;;;;;;;;;8365071;28;20106;-69
2022/01/18 15:00:27;;;;;;;2.22;1.20;;;;;;;;;;8359224;28;20033;-67
2022/01/18 15:04:27;;;;;;;2.42;0.95;;;;;;;;;;8343838;28;20024;-65
2022/01/18 15:08:28;;;;;;;1.40;1.02;;;;;;;;;;8341580;28;20021;-66
2022/01/18 15:12:28;;;;;;;1.23;1.08;;;;;;;;;;8340185;28;20589;-66
2022/01/18 15:16:28;;;;;;;3.83;1.10;;;;;;;;;;8341819;28;20037;-65
2022/01/18 15:20:28;;;;;;;1.48;1.15;;;;;;;;;;8350056;28;20662;-65
2022/01/18 15:24:28;;;;;;;1.20;1.10;;;;;;;;;;8341530;28;20690;-65
2022/01/18 15:28:29;;;;;;;1.48;1.38;;;;;;;;;;8341336;28;21100;-65
2022/01/18 15:32:29;;;;;;;1.92;1.30;;;;;;;;;;8339734;28;20566;-66
2022/01/18 15:36:29;;;;;;;2.70;1.40;;;;;;;;;;8340459;28;20032;-66
2022/01/18 15:40:29;;;;;;;3.55;1.80;;;;;;;;;;8342026;28;20201;-66
2022/01/18 15:44:30;;;;;;;2.33;1.95;;;;;;;;;;8340214;28;20074;-66
2022/01/18 15:48:30;;;;;;;3.67;1.75;;;;;;;;;;8339546;28;20344;-66
2022/01/18 15:52:30;;;;;;;3.70;1.90;;;;;;;;;;8343061;28;20037;-66
2022/01/18 15:56:31;;;;;;;2.70;2.00;;;;;;;;;;8339766;28;20048;-66
2022/01/18 16:00:31;;;;;;;4.55;2.40;;;;;;;;;;8338657;28;20033;-65
2022/01/18 16:04:32;;;;;;;4.50;2.50;;;;;;;;;;8338778;28;20016;-66
2022/01/18 16:08:33;;;;;;;4.05;2.10;;;;;;;;;;8339534;28;20111;-66
2022/01/18 16:12:33;;;;;;;4.13;2.15;;;;;;;;;;8337752;28;20032;-65
2022/01/18 16:16:37;;;;;;;2.90;2.00;;;;;;;;;;8337550;28;20123;-65
2022/01/18 16:20:38;;;;;;;2.25;1.88;;;;;;;;;;8338109;28;20062;-65
2022/01/18 16:24:38;;;;;;;3.70;1.80;;;;;;;;;;8339188;28;20040;-66
2022/01/18 16:28:38;;;;;;;4.10;2.10;;;;;;;;;;8337434;28;20165;-66
2022/01/18 16:32:42;;;;;;;3.00;1.88;;;;;;;;;;8337268;28;20264;-65
2022/01/18 16:36:43;;;;;;;4.07;2.40;;;;;;;;;;8338413;28;20029;-66
2022/01/18 16:40:43;;;;;;;7.05;2.88;;;;;;;;;;8338066;28;20253;-65
2022/01/18 16:44:43;;;;;;;4.03;2.50;;;;;;;;;;8337483;28;20032;-65
2022/01/18 16:48:44;;;;;;;5.05;2.42;;;;;;;;;;8335785;28;20362;-65
2022/01/18 16:52:44;;;;;;;4.72;2.47;;;;;;;;;;8338034;28;20028;-66
2022/01/18 16:56:44;;;;;;;3.45;2.40;;;;;;;;;;8338492;28;20030;-66
2022/01/18 17:00:45;;;;;;;3.00;2.40;;;;;;;;;;8337703;28;20415;-66
2022/01/18 17:04:46;;;;;;;4.13;2.65;;;;;;;;;;8337494;28;20321;-66
2022/01/18 17:08:46;;;;;;;6.40;3.10;;;;;;;;;;8337999;28;20216;-65
2022/01/18 17:12:46;;;;;;;5.38;3.10;;;;;;;;;;8335063;28;20059;-65
2022/01/18 17:16:48;;;;;;;5.75;3.03;;;;;;;;;;8341935;28;20041;-65
2022/01/18 17:20:48;;;;;;;9.10;3.30;;;;;;;;;;8342823;28;20232;-65
2022/01/18 17:24:49;;;;;;;3.90;2.58;;;;;;;;;;8343634;28;20027;-65
2022/01/18 17:28:49;;;;;;;7.20;2.72;;;;;;;;;;8340956;28;20052;-65
2022/01/18 17:32:49;;;;;;;6.43;2.67;;;;;;;;;;8342411;28;20043;-66
2022/01/18 17:36:52;;;;;;;3.20;2.70;;;;;;;;;;8341362;28;20082;-65
2022/01/18 17:40:53;;;;;;;4.72;3.10;;;;;;;;;;8343805;28;20375;-65
2022/01/18 17:44:53;;;;;;;2.50;1.63;;;;;;;;;;8341756;28;20055;-65
2022/01/18 17:48:54;;;;;;;5.13;2.40;;;;;;;;;;8339472;28;20036;-65
2022/01/18 17:52:54;;;;;;;2.42;1.80;;;;;;;;;;8340707;28;20174;-65
2022/01/18 17:56:54;;;;;;;3.92;2.90;;;;;;;;;;8342594;28;20400;-66
2022/01/18 18:00:54;;;;;;;4.30;2.88;;;;;;;;;;8340065;28;20041;-65
2022/01/18 18:04:55;;;;;;;3.78;2.45;;;;;;;;;;8339167;28;20020;-65
2022/01/18 18:08:55;;;;;;;2.75;2.20;;;;;;;;;;8343164;28;20025;-66
2022/01/18 18:12:56;;;;;;;2.90;2.40;;;;;;;;;;8340622;28;20021;-65
2022/01/18 18:16:56;;;;;;;2.30;2.10;;;;;;;;;;8340940;28;20093;-65
2022/01/18 18:20:57;;;;;;;3.28;1.80;;;;;;;;;;8339234;28;20036;-65
2022/01/18 18:24:57;;;;;;;2.05;1.00;;;;;;;;;;8340622;28;20123;-66
2022/01/18 18:28:58;;;;;;;2.78;1.48;;;;;;;;;;8340125;28;20056;-65
2022/01/18 18:32:58;;;;;;;1.30;1.20;;;;;;;;;;8346925;28;20661;-66
2022/01/18 18:36:59;;;;;;;1.38;1.27;;;;;;;;;;8339772;28;20025;-65
2022/01/18 18:41:02;;;;;;;1.35;1.00;;;;;;;;;;8341460;28;20028;-65
2022/01/18 18:45:03;;;;;;;1.27;1.17;;;;;;;;;;8342315;28;20416;-66
2022/01/18 18:49:03;;;;;;;1.85;1.30;;;;;;;;;;8339715;28;20322;-65
2022/01/18 18:53:06;;;;;;;1.30;1.20;;;;;;;;;;8338984;28;20448;-65
2022/01/18 18:57:06;;;;;;;2.33;1.80;;;;;;;;;;8338254;28;20600;-67
2022/01/18 19:01:08;;;;;;;4.15;2.08;;;;;;;;;;8339511;28;20045;-65
2022/01/18 19:05:08;;;;;;;2.00;1.80;;;;;;;;;;8335692;28;20362;-65
2022/01/18 19:09:08;;;;;;;3.05;1.85;;;;;;;;;;8341600;28;20146;-65
2022/01/18 19:13:09;;;;;;;2.03;1.90;;;;;;;;;;8337692;28;20029;-65
2022/01/18 19:17:09;;;;;;;2.28;2.08;;;;;;;;;;8337636;28;20572;-65
2022/01/18 19:21:09;;;;;;;2.35;2.15;;;;;;;;;;8335390;28;20094;-65
2022/01/18 19:25:10;;;;;;;3.60;2.55;;;;;;;;;;8337141;28;20036;-65
2022/01/18 19:29:10;;;;;;;3.65;2.53;;;;;;;;;;8337485;28;20506;-65
2022/01/18 19:33:10;;;;;;;3.78;2.90;;;;;;;;;;8338384;28;20819;-65
2022/01/18 19:37:11;;;;;;;3.70;3.00;;;;;;;;;;8339774;28;20048;-66
2022/01/18 19:41:12;;;;;;;3.70;3.13;;;;;;;;;;8339004;28;20033;-65
2022/01/18 19:45:20;;;;;;;3.05;2.75;;;;;;;;;;8338958;28;20355;-66
2022/01/18 19:49:20;;;;;;;1.83;1.65;;;;;;;;;;8339204;28;20111;-65
2022/01/18 19:53:21;;;;;;;2.50;1.90;;;;;;;;;;8339233;28;20032;-65
2022/01/18 19:57:21;;;;;;;2.55;2.20;;;;;;;;;;8340006;28;20523;-65
2022/01/18 20:01:23;;;;;;;2.38;2.15;;;;;;;;;;8338802;28;20049;-65
2022/01/18 20:05:24;;;;;;;3.60;2.50;;;;;;;;;;8339683;28;20032;-65
2022/01/18 20:09:24;;;;;;;4.10;2.63;;;;;;;;;;8337690;28;20034;-66
2022/01/18 20:13:24;;;;;;;3.38;2.70;;;;;;;;;;8337277;28;20108;-65
2022/01/18 20:17:25;;;;;;;5.00;2.50;;;;;;;;;;8331301;28;20045;-65
2022/01/18 20:21:25;;;;;;;4.68;2.33;;;;;;;;;;8333911;28;20631;-65
2022/01/18 20:25:28;;;;;;;3.55;2.10;;;;;;;;;;8340142;28;20028;-65
2022/01/18 20:29:29;;;;;;;2.05;1.85;;;;;;;;;;8337436;28;20111;-65
2022/01/18 20:33:29;;;;;;;3.42;1.90;;;;;;;;;;8335165;28;20109;-65
2022/01/18 20:37:29;;;;;;;2.00;1.65;;;;;;;;;;8337311;28;20911;-65
2022/01/18 20:45:49;;;;;;;1.98;1.50;;;;;;;;;;8335679;28;20269;-65
2022/01/18 20:49:50;;;;;;;2.90;1.33;;;;;;;;;;8336160;28;20048;-65
2022/01/18 20:53:50;;;;;;;1.40;1.30;;;;;;;;;;8336347;28;20012;-65
2022/01/18 20:57:52;;;;;;;1.30;1.20;;;;;;;;;;8336568;28;20028;-65
2022/01/18 21:01:52;;;;;;;1.50;1.25;;;;;;;;;;8334301;28;20516;-65
2022/01/18 21:05:52;;;;;;;2.63;1.35;;;;;;;;;;8333659;28;20037;-65
2022/01/18 21:09:52;;;;;;;1.20;1.15;;;;;;;;;;8336749;28;20716;-65
2022/01/18 21:13:59;;;;;;;1.33;1.23;;;;;;;;;;8336517;28;20503;-65
2022/01/18 21:18:00;;;;;;;1.27;1.10;;;;;;;;;;8338033;28;20044;-65
2022/01/18 21:22:00;;;;;;;1.35;1.00;;;;;;;;;;8341555;28;20416;-65
2022/01/18 21:26:00;;;;;;;1.40;1.23;;;;;;;;;;8340489;28;20055;-65
2022/01/18 21:30:02;;;;;;;5.07;1.27;;;;;;;;;;8344340;28;20085;-65
2022/01/18 21:34:07;;;;;;;1.27;1.17;;;;;;;;;;8340983;28;20143;-65
2022/01/18 21:38:08;;;;;;;3.85;1.50;;;;;;;;;;8341618;28;20396;-65
2022/01/18 21:42:08;;;;;;;2.03;1.50;;;;;;;;;;8341735;28;20060;-65
2022/01/18 21:46:08;;;;;;;4.63;1.75;;;;;;;;;;8337700;28;20029;-65
2022/01/18 21:50:12;;;;;;;3.15;1.40;;;;;;;;;;8343084;28;20051;-65
2022/01/18 21:54:12;;;;;;;1.67;1.58;;;;;;;;;;8342973;28;20255;-65
2022/01/18 21:58:12;;;;;;;2.50;1.48;;;;;;;;;;8341552;28;20051;-65
2022/01/18 22:02:13;;;;;;;1.92;1.40;;;;;;;;;;8343431;28;20123;-65
2022/01/18 22:06:15;;;;;;;1.77;1.53;;;;;;;;;;8348430;28;20587;-65
2022/01/18 22:10:15;;;;;;;3.00;1.75;;;;;;;;;;8346340;28;20278;-65
2022/01/18 22:14:16;;;;;;;2.20;1.52;;;;;;;;;;8346220;28;20054;-65
2022/01/18 22:18:16;;;;;;;3.53;1.90;;;;;;;;;;8345625;28;20040;-65
2022/01/18 22:22:16;;;;;;;2.30;1.80;;;;;;;;;;8347148;28;20849;-65
2022/01/18 22:26:17;;;;;;;2.25;2.05;;;;;;;;;;8347931;28;21030;-65
2022/01/18 22:30:18;;;;;;;3.00;1.95;;;;;;;;;;8346529;28;20037;-65
2022/01/18 22:34:18;;;;;;;1.90;1.80;;;;;;;;;;8345674;28;20135;-65
2022/01/18 22:38:20;;;;;;;2.43;2.10;;;;;;;;;;8347809;28;21086;-65
2022/01/18 22:42:20;;;;;;;2.60;2.30;;;;;;;;;;8347941;28;20323;-66
2022/01/18 22:46:20;;;;;;;3.00;2.20;;;;;;;;;;8349948;28;20044;-65
2022/01/18 22:50:20;;;;;;;2.20;2.00;;;;;;;;;;8351750;28;20021;-65
2022/01/18 22:54:21;;;;;;;2.22;1.95;;;;;;;;;;8348558;28;20114;-65
2022/01/18 22:58:21;;;;;;;3.63;2.20;;;;;;;;;;8349604;28;20028;-65
2022/01/18 23:02:21;;;;;;;2.75;2.08;;;;;;;;;;8349203;28;20036;-65
2022/01/18 23:06:21;;;;;;;3.30;2.22;;;;;;;;;;8348667;28;20037;-65
2022/01/18 23:10:22;;;;;;;4.07;2.47;;;;;;;;;;8349496;28;20146;-65
2022/01/18 23:14:22;;;;;;;3.92;2.40;;;;;;;;;;8347506;28;20037;-65
2022/01/18 23:18:22;;;;;;;4.45;2.80;;;;;;;;;;8344948;28;20036;-65
2022/01/18 23:22:22;;;;;;;3.53;2.42;;;;;;;;;;8348110;28;20275;-65
2022/01/18 23:26:23;;;;;;;2.53;2.33;;;;;;;;;;8348438;28;20025;-65
2022/01/18 23:30:23;;;;;;;4.57;2.60;;;;;;;;;;8348239;28;20427;-65
2022/01/18 23:34:23;;;;;;;3.58;2.55;;;;;;;;;;8346773;28;20083;-65
2022/01/18 23:38:27;;;;;;;2.47;2.05;;;;;;;;;;8347576;28;21031;-65
2022/01/18 23:42:27;;;;;;;2.80;2.30;;;;;;;;;;8346397;28;20033;-65
2022/01/18 23:46:28;;;;;;;2.15;1.95;;;;;;;;;;8346630;28;20159;-65
2022/01/18 23:50:28;;;;;;;4.87;2.47;;;;;;;;;;8348453;28;20293;-65
2022/01/18 23:54:30;;;;;;;4.90;2.80;;;;;;;;;;8347925;28;20263;-66
2022/01/18 23:58:31;;;;;;;3.35;2.47;;;;;;;;;;8348317;28;20274;-66
